sensor_id;sensor_type;location;lat;lon;timestamp;temperature;humidity
15239;DHT22;7722;53.274;9.500;2023-04-24T00:01:45;11.60;99.90
15239;DHT22;7722;53.274;9.500;2023-04-24T00:04:12;11.60;99.90
15239;DHT22;7722;53.274;9.500;2023-04-24T00:06:39;11.60;99.90
15239;DHT22;7722;53.274;9.500;2023-04-24T00:09:08;11.60;99.90
15239;DHT22;7722;53.274;9.500;2023-04-24T00:11:36;11.50;99.90
15239;DHT22;7722;53.274;9.500;2023-04-24T00:14:04;11.50;99.90
15239;DHT22;7722;53.274;9.500;2023-04-24T00:16:31;11.50;99.90
15239;DHT22;7722;53.274;9.500;2023-04-24T00:18:58;11.50;99.90
15239;DHT22;7722;53.274;9.500;2023-04-24T00:21:26;11.50;99.90
15239;DHT22;7722;53.274;9.500;2023-04-24T00:23:53;11.50;99.90
15239;DHT22;7722;53.274;9.500;2023-04-24T00:26:20;11.40;99.90
15239;DHT22;7722;53.274;9.500;2023-04-24T00:28:47;11.40;99.90
15239;DHT22;7722;53.274;9.500;2023-04-24T00:31:15;11.30;99.90
15239;DHT22;7722;53.274;9.500;2023-04-24T00:33:42;11.20;99.90
15239;DHT22;7722;53.274;9.500;2023-04-24T00:36:09;11.20;99.90
15239;DHT22;7722;53.274;9.500;2023-04-24T00:38:36;11.10;99.90
15239;DHT22;7722;53.274;9.500;2023-04-24T00:41:04;11.10;99.90
15239;DHT22;7722;53.274;9.500;2023-04-24T00:43:31;11.10;99.90
15239;DHT22;7722;53.274;9.500;2023-04-24T00:45:58;11.10;99.90
15239;DHT22;7722;53.274;9.500;2023-04-24T00:48:28;11.10;99.90
15239;DHT22;7722;53.274;9.500;2023-04-24T00:50:56;11.10;99.90
15239;DHT22;7722;53.274;9.500;2023-04-24T00:53:24;11.10;99.90
15239;DHT22;7722;53.274;9.500;2023-04-24T00:55:51;11.10;99.90
15239;DHT22;7722;53.274;9.500;2023-04-24T00:58:18;11.10;99.90
15239;DHT22;7722;53.274;9.500;2023-04-24T01:00:45;11.10;99.90
15239;DHT22;7722;53.274;9.500;2023-04-24T01:03:13;11.20;99.90
15239;DHT22;7722;53.274;9.500;2023-04-24T01:05:41;11.20;99.90
15239;DHT22;7722;53.274;9.500;2023-04-24T01:08:09;11.20;99.90
15239;DHT22;7722;53.274;9.500;2023-04-24T01:10:38;11.10;99.90
15239;DHT22;7722;53.274;9.500;2023-04-24T01:13:08;11.10;99.90
15239;DHT22;7722;53.274;9.500;2023-04-24T01:15:36;11.10;99.90
15239;DHT22;7722;53.274;9.500;2023-04-24T01:18:03;11.00;99.90
15239;DHT22;7722;53.274;9.500;2023-04-24T01:20:31;11.00;99.90
15239;DHT22;7722;53.274;9.500;2023-04-24T01:22:59;11.00;99.90
15239;DHT22;7722;53.274;9.500;2023-04-24T01:25:27;10.90;99.90
15239;DHT22;7722;53.274;9.500;2023-04-24T01:27:54;11.00;99.90
15239;DHT22;7722;53.274;9.500;2023-04-24T01:30:21;10.90;99.90
15239;DHT22;7722;53.274;9.500;2023-04-24T01:32:48;10.90;99.90
15239;DHT22;7722;53.274;9.500;2023-04-24T01:35:16;10.90;99.90
15239;DHT22;7722;53.274;9.500;2023-04-24T01:37:43;10.90;99.90
15239;DHT22;7722;53.274;9.500;2023-04-24T01:40:12;10.90;99.90
15239;DHT22;7722;53.274;9.500;2023-04-24T01:42:41;10.80;99.90
15239;DHT22;7722;53.274;9.500;2023-04-24T01:45:11;10.80;99.90
15239;DHT22;7722;53.274;9.500;2023-04-24T01:47:38;10.80;99.90
15239;DHT22;7722;53.274;9.500;2023-04-24T01:50:07;10.70;99.90
15239;DHT22;7722;53.274;9.500;2023-04-24T01:52:34;10.70;99.90
15239;DHT22;7722;53.274;9.500;2023-04-24T01:55:02;10.60;99.90
15239;DHT22;7722;53.274;9.500;2023-04-24T01:57:31;10.60;99.90
15239;DHT22;7722;53.274;9.500;2023-04-24T01:59:58;10.50;99.90
15239;DHT22;7722;53.274;9.500;2023-04-24T02:02:25;10.50;99.90
15239;DHT22;7722;53.274;9.500;2023-04-24T02:04:54;10.50;99.90
15239;DHT22;7722;53.274;9.500;2023-04-24T02:07:21;10.50;99.90
15239;DHT22;7722;53.274;9.500;2023-04-24T02:09:48;10.50;99.90
15239;DHT22;7722;53.274;9.500;2023-04-24T02:12:16;10.40;99.90
15239;DHT22;7722;53.274;9.500;2023-04-24T02:14:45;10.40;99.90
15239;DHT22;7722;53.274;9.500;2023-04-24T02:17:12;10.30;99.90
15239;DHT22;7722;53.274;9.500;2023-04-24T02:19:41;10.30;99.90
15239;DHT22;7722;53.274;9.500;2023-04-24T02:22:08;10.20;99.90
15239;DHT22;7722;53.274;9.500;2023-04-24T02:24:36;10.20;99.90
15239;DHT22;7722;53.274;9.500;2023-04-24T02:27:03;10.20;99.90
15239;DHT22;7722;53.274;9.500;2023-04-24T02:29:31;10.20;99.90
15239;DHT22;7722;53.274;9.500;2023-04-24T02:31:59;10.20;99.90
15239;DHT22;7722;53.274;9.500;2023-04-24T02:34:29;10.10;99.90
15239;DHT22;7722;53.274;9.500;2023-04-24T02:36:56;10.20;99.90
15239;DHT22;7722;53.274;9.500;2023-04-24T02:39:23;10.20;99.90
15239;DHT22;7722;53.274;9.500;2023-04-24T02:41:50;10.20;99.90
15239;DHT22;7722;53.274;9.500;2023-04-24T02:44:17;10.20;99.90
15239;DHT22;7722;53.274;9.500;2023-04-24T02:46:44;10.10;99.90
15239;DHT22;7722;53.274;9.500;2023-04-24T02:49:12;10.10;99.90
15239;DHT22;7722;53.274;9.500;2023-04-24T02:51:39;10.10;99.90
15239;DHT22;7722;53.274;9.500;2023-04-24T02:54:07;10.00;99.90
15239;DHT22;7722;53.274;9.500;2023-04-24T02:56:35;10.00;99.90
15239;DHT22;7722;53.274;9.500;2023-04-24T02:59:02;10.00;99.90
15239;DHT22;7722;53.274;9.500;2023-04-24T03:01:29;9.90;99.90
15239;DHT22;7722;53.274;9.500;2023-04-24T03:03:56;9.90;99.90
15239;DHT22;7722;53.274;9.500;2023-04-24T03:06:25;10.00;99.90
15239;DHT22;7722;53.274;9.500;2023-04-24T03:08:52;10.00;99.90
15239;DHT22;7722;53.274;9.500;2023-04-24T03:11:20;10.00;99.90
15239;DHT22;7722;53.274;9.500;2023-04-24T03:13:47;10.00;99.90
15239;DHT22;7722;53.274;9.500;2023-04-24T03:16:14;10.00;99.90
15239;DHT22;7722;53.274;9.500;2023-04-24T03:18:41;10.10;99.90
15239;DHT22;7722;53.274;9.500;2023-04-24T03:21:09;10.20;99.90
15239;DHT22;7722;53.274;9.500;2023-04-24T03:23:37;10.20;99.90
15239;DHT22;7722;53.274;9.500;2023-04-24T03:26:04;10.20;99.90
15239;DHT22;7722;53.274;9.500;2023-04-24T03:28:31;10.20;99.90
15239;DHT22;7722;53.274;9.500;2023-04-24T03:30:58;10.30;99.90
15239;DHT22;7722;53.274;9.500;2023-04-24T03:33:25;10.30;99.90
15239;DHT22;7722;53.274;9.500;2023-04-24T03:35:52;10.30;99.90
15239;DHT22;7722;53.274;9.500;2023-04-24T03:38:19;10.30;99.90
15239;DHT22;7722;53.274;9.500;2023-04-24T03:40:47;10.30;99.90
15239;DHT22;7722;53.274;9.500;2023-04-24T03:43:14;10.30;99.90
15239;DHT22;7722;53.274;9.500;2023-04-24T03:45:41;10.20;99.90
15239;DHT22;7722;53.274;9.500;2023-04-24T03:48:08;10.20;99.90
15239;DHT22;7722;53.274;9.500;2023-04-24T03:50:35;10.10;99.90
15239;DHT22;7722;53.274;9.500;2023-04-24T03:53:02;10.10;99.90
15239;DHT22;7722;53.274;9.500;2023-04-24T03:55:30;10.00;99.90
15239;DHT22;7722;53.274;9.500;2023-04-24T03:57:58;10.10;99.90
15239;DHT22;7722;53.274;9.500;2023-04-24T04:00:25;10.10;99.90
15239;DHT22;7722;53.274;9.500;2023-04-24T04:02:53;10.20;99.90
15239;DHT22;7722;53.274;9.500;2023-04-24T04:05:20;10.20;99.90
15239;DHT22;7722;53.274;9.500;2023-04-24T04:07:47;10.20;99.90
15239;DHT22;7722;53.274;9.500;2023-04-24T04:10:14;10.20;99.90
15239;DHT22;7722;53.274;9.500;2023-04-24T04:12:42;10.20;99.90
15239;DHT22;7722;53.274;9.500;2023-04-24T04:15:11;10.30;99.90
15239;DHT22;7722;53.274;9.500;2023-04-24T04:17:38;10.30;99.90
15239;DHT22;7722;53.274;9.500;2023-04-24T04:20:06;10.30;99.90
15239;DHT22;7722;53.274;9.500;2023-04-24T04:22:35;10.30;99.90
15239;DHT22;7722;53.274;9.500;2023-04-24T04:25:03;10.20;99.90
15239;DHT22;7722;53.274;9.500;2023-04-24T04:27:30;10.10;99.90
15239;DHT22;7722;53.274;9.500;2023-04-24T04:29:58;10.00;99.90
15239;DHT22;7722;53.274;9.500;2023-04-24T04:32:28;10.00;99.90
15239;DHT22;7722;53.274;9.500;2023-04-24T04:34:55;10.00;99.90
15239;DHT22;7722;53.274;9.500;2023-04-24T04:37:22;10.00;99.90
15239;DHT22;7722;53.274;9.500;2023-04-24T04:39:49;10.00;99.90
15239;DHT22;7722;53.274;9.500;2023-04-24T04:42:16;10.00;99.90
15239;DHT22;7722;53.274;9.500;2023-04-24T04:44:44;10.10;99.90
15239;DHT22;7722;53.274;9.500;2023-04-24T04:47:11;10.10;99.90
15239;DHT22;7722;53.274;9.500;2023-04-24T04:49:40;10.20;99.90
15239;DHT22;7722;53.274;9.500;2023-04-24T04:52:08;10.20;99.90
15239;DHT22;7722;53.274;9.500;2023-04-24T04:54:35;10.30;99.90
15239;DHT22;7722;53.274;9.500;2023-04-24T04:57:02;10.40;99.90
15239;DHT22;7722;53.274;9.500;2023-04-24T04:59:29;10.40;99.90
15239;DHT22;7722;53.274;9.500;2023-04-24T05:01:56;10.40;99.90
15239;DHT22;7722;53.274;9.500;2023-04-24T05:04:23;10.40;99.90
15239;DHT22;7722;53.274;9.500;2023-04-24T05:06:52;10.40;99.90
15239;DHT22;7722;53.274;9.500;2023-04-24T05:09:19;10.40;99.90
15239;DHT22;7722;53.274;9.500;2023-04-24T05:11:46;10.40;99.90
15239;DHT22;7722;53.274;9.500;2023-04-24T05:14:13;10.40;99.90
15239;DHT22;7722;53.274;9.500;2023-04-24T05:16:40;10.40;99.90
15239;DHT22;7722;53.274;9.500;2023-04-24T05:19:07;10.40;99.90
15239;DHT22;7722;53.274;9.500;2023-04-24T05:21:34;10.40;99.90
15239;DHT22;7722;53.274;9.500;2023-04-24T05:24:03;10.40;99.90
15239;DHT22;7722;53.274;9.500;2023-04-24T05:26:30;10.40;99.90
15239;DHT22;7722;53.274;9.500;2023-04-24T05:28:57;10.40;99.90
15239;DHT22;7722;53.274;9.500;2023-04-24T05:31:24;10.40;99.90
15239;DHT22;7722;53.274;9.500;2023-04-24T05:33:51;10.40;99.90
15239;DHT22;7722;53.274;9.500;2023-04-24T05:36:19;10.40;99.90
15239;DHT22;7722;53.274;9.500;2023-04-24T05:38:46;10.50;99.90
15239;DHT22;7722;53.274;9.500;2023-04-24T05:41:16;10.50;99.90
15239;DHT22;7722;53.274;9.500;2023-04-24T05:43:43;10.60;99.90
15239;DHT22;7722;53.274;9.500;2023-04-24T05:46:11;10.60;99.90
15239;DHT22;7722;53.274;9.500;2023-04-24T05:48:38;10.70;99.90
15239;DHT22;7722;53.274;9.500;2023-04-24T05:51:05;10.80;99.90
15239;DHT22;7722;53.274;9.500;2023-04-24T05:53:32;10.80;99.90
15239;DHT22;7722;53.274;9.500;2023-04-24T05:55:59;10.80;99.90
15239;DHT22;7722;53.274;9.500;2023-04-24T05:58:28;10.80;99.90
15239;DHT22;7722;53.274;9.500;2023-04-24T06:00:55;10.80;99.90
15239;DHT22;7722;53.274;9.500;2023-04-24T06:03:24;10.90;99.90
15239;DHT22;7722;53.274;9.500;2023-04-24T06:05:51;10.90;99.90
15239;DHT22;7722;53.274;9.500;2023-04-24T06:08:18;10.90;99.90
15239;DHT22;7722;53.274;9.500;2023-04-24T06:10:45;10.90;99.90
15239;DHT22;7722;53.274;9.500;2023-04-24T06:13:13;11.00;99.90
15239;DHT22;7722;53.274;9.500;2023-04-24T06:15:42;11.00;99.90
15239;DHT22;7722;53.274;9.500;2023-04-24T06:18:10;11.10;99.90
15239;DHT22;7722;53.274;9.500;2023-04-24T06:20:38;11.10;99.90
15239;DHT22;7722;53.274;9.500;2023-04-24T06:23:05;11.20;99.90
15239;DHT22;7722;53.274;9.500;2023-04-24T06:25:32;11.20;99.90
15239;DHT22;7722;53.274;9.500;2023-04-24T06:27:59;11.20;99.90
15239;DHT22;7722;53.274;9.500;2023-04-24T06:30:27;11.20;99.90
15239;DHT22;7722;53.274;9.500;2023-04-24T06:32:55;11.30;99.90
15239;DHT22;7722;53.274;9.500;2023-04-24T06:35:23;11.20;99.90
15239;DHT22;7722;53.274;9.500;2023-04-24T06:37:52;11.30;99.90
15239;DHT22;7722;53.274;9.500;2023-04-24T06:40:21;11.30;99.90
15239;DHT22;7722;53.274;9.500;2023-04-24T06:42:48;11.40;99.90
15239;DHT22;7722;53.274;9.500;2023-04-24T06:45:15;11.40;99.90
15239;DHT22;7722;53.274;9.500;2023-04-24T06:47:43;11.40;99.90
15239;DHT22;7722;53.274;9.500;2023-04-24T06:50:11;11.40;99.90
15239;DHT22;7722;53.274;9.500;2023-04-24T06:52:40;11.50;99.90
15239;DHT22;7722;53.274;9.500;2023-04-24T06:55:08;11.50;99.90
15239;DHT22;7722;53.274;9.500;2023-04-24T06:57:36;11.50;99.90
15239;DHT22;7722;53.274;9.500;2023-04-24T07:00:04;11.50;99.90
15239;DHT22;7722;53.274;9.500;2023-04-24T07:02:32;11.60;99.90
15239;DHT22;7722;53.274;9.500;2023-04-24T07:04:59;11.70;99.90
15239;DHT22;7722;53.274;9.500;2023-04-24T07:07:28;11.70;99.90
15239;DHT22;7722;53.274;9.500;2023-04-24T07:09:55;11.70;99.90
15239;DHT22;7722;53.274;9.500;2023-04-24T07:12:22;11.70;99.90
15239;DHT22;7722;53.274;9.500;2023-04-24T07:14:50;11.80;99.90
15239;DHT22;7722;53.274;9.500;2023-04-24T07:17:17;11.90;99.90
15239;DHT22;7722;53.274;9.500;2023-04-24T07:19:44;12.20;99.90
15239;DHT22;7722;53.274;9.500;2023-04-24T07:22:11;12.20;99.90
15239;DHT22;7722;53.274;9.500;2023-04-24T07:24:43;12.20;99.90
15239;DHT22;7722;53.274;9.500;2023-04-24T07:27:10;12.20;99.90
15239;DHT22;7722;53.274;9.500;2023-04-24T07:29:40;12.10;99.90
15239;DHT22;7722;53.274;9.500;2023-04-24T07:32:07;12.00;99.90
15239;DHT22;7722;53.274;9.500;2023-04-24T07:34:34;11.90;99.90
15239;DHT22;7722;53.274;9.500;2023-04-24T07:37:02;11.80;99.90
15239;DHT22;7722;53.274;9.500;2023-04-24T07:39:29;12.00;99.90
15239;DHT22;7722;53.274;9.500;2023-04-24T07:41:58;12.20;99.90
15239;DHT22;7722;53.274;9.500;2023-04-24T07:44:25;12.20;99.90
15239;DHT22;7722;53.274;9.500;2023-04-24T07:46:52;12.30;99.90
15239;DHT22;7722;53.274;9.500;2023-04-24T07:49:19;12.40;99.90
15239;DHT22;7722;53.274;9.500;2023-04-24T07:51:46;12.60;99.90
15239;DHT22;7722;53.274;9.500;2023-04-24T07:54:13;12.70;99.90
15239;DHT22;7722;53.274;9.500;2023-04-24T07:56:41;12.70;99.90
15239;DHT22;7722;53.274;9.500;2023-04-24T08:01:45;12.80;99.90
15239;DHT22;7722;53.274;9.500;2023-04-24T08:04:12;12.80;99.90
15239;DHT22;7722;53.274;9.500;2023-04-24T08:06:39;12.80;99.90
15239;DHT22;7722;53.274;9.500;2023-04-24T08:09:06;12.70;99.90
15239;DHT22;7722;53.274;9.500;2023-04-24T08:11:34;12.80;99.90
15239;DHT22;7722;53.274;9.500;2023-04-24T08:14:01;12.80;99.90
15239;DHT22;7722;53.274;9.500;2023-04-24T08:16:27;12.70;99.90
15239;DHT22;7722;53.274;9.500;2023-04-24T08:18:56;12.70;99.90
15239;DHT22;7722;53.274;9.500;2023-04-24T08:21:23;12.70;99.90
15239;DHT22;7722;53.274;9.500;2023-04-24T08:23:51;12.70;99.90
15239;DHT22;7722;53.274;9.500;2023-04-24T08:26:18;12.60;99.90
15239;DHT22;7722;53.274;9.500;2023-04-24T08:28:45;12.60;99.90
15239;DHT22;7722;53.274;9.500;2023-04-24T08:31:12;12.50;99.90
15239;DHT22;7722;53.274;9.500;2023-04-24T08:33:40;12.50;99.90
15239;DHT22;7722;53.274;9.500;2023-04-24T08:36:08;12.50;99.90
15239;DHT22;7722;53.274;9.500;2023-04-24T08:38:35;12.50;99.90
15239;DHT22;7722;53.274;9.500;2023-04-24T08:41:02;12.40;99.90
15239;DHT22;7722;53.274;9.500;2023-04-24T08:43:32;12.30;99.90
15239;DHT22;7722;53.274;9.500;2023-04-24T08:46:00;12.40;99.90
15239;DHT22;7722;53.274;9.500;2023-04-24T08:48:27;12.40;99.90
15239;DHT22;7722;53.274;9.500;2023-04-24T08:50:56;12.50;99.90
15239;DHT22;7722;53.274;9.500;2023-04-24T08:53:26;12.40;99.90
15239;DHT22;7722;53.274;9.500;2023-04-24T08:55:54;12.40;99.90
15239;DHT22;7722;53.274;9.500;2023-04-24T08:58:24;12.40;99.90
15239;DHT22;7722;53.274;9.500;2023-04-24T09:00:53;12.40;99.90
15239;DHT22;7722;53.274;9.500;2023-04-24T09:03:21;12.30;99.90
15239;DHT22;7722;53.274;9.500;2023-04-24T09:05:48;12.10;99.90
15239;DHT22;7722;53.274;9.500;2023-04-24T09:08:17;12.00;99.90
15239;DHT22;7722;53.274;9.500;2023-04-24T09:10:46;11.90;99.90
15239;DHT22;7722;53.274;9.500;2023-04-24T09:13:14;12.00;99.90
15239;DHT22;7722;53.274;9.500;2023-04-24T09:15:42;12.10;99.90
15239;DHT22;7722;53.274;9.500;2023-04-24T09:18:09;12.00;99.90
15239;DHT22;7722;53.274;9.500;2023-04-24T09:21:00;12.10;99.90
15239;DHT22;7722;53.274;9.500;2023-04-24T09:23:28;12.40;99.90
15239;DHT22;7722;53.274;9.500;2023-04-24T09:25:58;12.50;99.90
15239;DHT22;7722;53.274;9.500;2023-04-24T09:28:30;12.40;99.90
15239;DHT22;7722;53.274;9.500;2023-04-24T09:31:05;12.40;99.90
15239;DHT22;7722;53.274;9.500;2023-04-24T09:33:32;12.30;99.90
15239;DHT22;7722;53.274;9.500;2023-04-24T09:35:59;12.50;99.90
15239;DHT22;7722;53.274;9.500;2023-04-24T09:38:33;12.40;99.90
15239;DHT22;7722;53.274;9.500;2023-04-24T09:41:04;12.50;99.90
15239;DHT22;7722;53.274;9.500;2023-04-24T09:43:32;12.40;99.90
15239;DHT22;7722;53.274;9.500;2023-04-24T09:46:03;12.50;99.90
15239;DHT22;7722;53.274;9.500;2023-04-24T09:48:31;12.60;99.90
15239;DHT22;7722;53.274;9.500;2023-04-24T09:51:00;12.70;99.90
15239;DHT22;7722;53.274;9.500;2023-04-24T09:53:27;12.60;99.90
15239;DHT22;7722;53.274;9.500;2023-04-24T09:55:55;12.70;99.90
15239;DHT22;7722;53.274;9.500;2023-04-24T09:58:26;12.80;99.90
15239;DHT22;7722;53.274;9.500;2023-04-24T10:00:54;12.70;99.90
15239;DHT22;7722;53.274;9.500;2023-04-24T10:03:24;12.70;99.90
15239;DHT22;7722;53.274;9.500;2023-04-24T10:05:52;12.50;99.90
15239;DHT22;7722;53.274;9.500;2023-04-24T10:08:19;12.40;99.90
15239;DHT22;7722;53.274;9.500;2023-04-24T10:10:47;12.50;99.90
15239;DHT22;7722;53.274;9.500;2023-04-24T10:13:14;12.60;99.90
15239;DHT22;7722;53.274;9.500;2023-04-24T10:15:43;12.70;99.90
15239;DHT22;7722;53.274;9.500;2023-04-24T10:18:11;12.70;99.90
15239;DHT22;7722;53.274;9.500;2023-04-24T10:20:39;12.60;99.90
15239;DHT22;7722;53.274;9.500;2023-04-24T10:23:07;12.40;99.90
15239;DHT22;7722;53.274;9.500;2023-04-24T10:25:35;12.40;99.90
15239;DHT22;7722;53.274;9.500;2023-04-24T10:28:03;12.50;99.90
15239;DHT22;7722;53.274;9.500;2023-04-24T10:30:31;12.60;99.90
15239;DHT22;7722;53.274;9.500;2023-04-24T10:33:02;12.80;99.90
15239;DHT22;7722;53.274;9.500;2023-04-24T10:35:31;12.90;99.90
15239;DHT22;7722;53.274;9.500;2023-04-24T10:38:01;12.80;99.90
15239;DHT22;7722;53.274;9.500;2023-04-24T10:40:31;12.80;99.90
15239;DHT22;7722;53.274;9.500;2023-04-24T10:43:01;12.80;99.90
15239;DHT22;7722;53.274;9.500;2023-04-24T10:45:28;12.80;99.90
15239;DHT22;7722;53.274;9.500;2023-04-24T10:48:01;12.60;99.90
15239;DHT22;7722;53.274;9.500;2023-04-24T10:50:41;12.60;99.90
15239;DHT22;7722;53.274;9.500;2023-04-24T10:53:14;12.40;99.90
15239;DHT22;7722;53.274;9.500;2023-04-24T10:55:43;12.20;99.90
15239;DHT22;7722;53.274;9.500;2023-04-24T10:58:11;12.20;99.90
15239;DHT22;7722;53.274;9.500;2023-04-24T11:00:39;12.20;99.90
15239;DHT22;7722;53.274;9.500;2023-04-24T11:03:22;12.30;99.90
15239;DHT22;7722;53.274;9.500;2023-04-24T11:05:55;12.40;99.90
15239;DHT22;7722;53.274;9.500;2023-04-24T11:08:27;12.50;99.90
15239;DHT22;7722;53.274;9.500;2023-04-24T11:10:57;12.50;99.90
15239;DHT22;7722;53.274;9.500;2023-04-24T11:13:25;12.50;99.90
15239;DHT22;7722;53.274;9.500;2023-04-24T11:16:15;12.40;99.90
15239;DHT22;7722;53.274;9.500;2023-04-24T11:18:50;12.30;99.90
15239;DHT22;7722;53.274;9.500;2023-04-24T11:21:22;12.40;99.90
15239;DHT22;7722;53.274;9.500;2023-04-24T11:23:49;12.50;99.90
15239;DHT22;7722;53.274;9.500;2023-04-24T11:26:21;12.60;99.90
15239;DHT22;7722;53.274;9.500;2023-04-24T11:28:50;12.70;99.90
15239;DHT22;7722;53.274;9.500;2023-04-24T11:31:37;12.70;99.90
15239;DHT22;7722;53.274;9.500;2023-04-24T11:34:08;12.70;99.90
15239;DHT22;7722;53.274;9.500;2023-04-24T11:36:38;12.60;99.90
15239;DHT22;7722;53.274;9.500;2023-04-24T11:39:05;12.50;99.90
15239;DHT22;7722;53.274;9.500;2023-04-24T11:41:33;12.60;99.90
15239;DHT22;7722;53.274;9.500;2023-04-24T11:44:01;12.60;99.90
15239;DHT22;7722;53.274;9.500;2023-04-24T11:46:29;12.40;99.90
15239;DHT22;7722;53.274;9.500;2023-04-24T11:48:58;12.40;99.90
15239;DHT22;7722;53.274;9.500;2023-04-24T11:51:26;12.30;99.90
15239;DHT22;7722;53.274;9.500;2023-04-24T11:53:55;12.30;99.90
15239;DHT22;7722;53.274;9.500;2023-04-24T11:56:23;12.30;99.90
15239;DHT22;7722;53.274;9.500;2023-04-24T11:58:52;12.30;99.90
15239;DHT22;7722;53.274;9.500;2023-04-24T12:01:19;12.10;99.90
15239;DHT22;7722;53.274;9.500;2023-04-24T12:03:50;12.00;99.90
15239;DHT22;7722;53.274;9.500;2023-04-24T12:06:17;11.80;99.90
15239;DHT22;7722;53.274;9.500;2023-04-24T12:08:48;11.70;99.90
15239;DHT22;7722;53.274;9.500;2023-04-24T12:11:17;11.70;99.90
15239;DHT22;7722;53.274;9.500;2023-04-24T12:13:46;11.70;99.90
15239;DHT22;7722;53.274;9.500;2023-04-24T12:16:13;11.80;99.90
15239;DHT22;7722;53.274;9.500;2023-04-24T12:18:44;11.80;99.90
15239;DHT22;7722;53.274;9.500;2023-04-24T12:21:15;11.80;99.90
15239;DHT22;7722;53.274;9.500;2023-04-24T12:23:43;11.70;99.90
15239;DHT22;7722;53.274;9.500;2023-04-24T12:26:10;11.70;99.90
15239;DHT22;7722;53.274;9.500;2023-04-24T12:28:39;11.70;99.90
15239;DHT22;7722;53.274;9.500;2023-04-24T12:31:06;11.80;99.90
15239;DHT22;7722;53.274;9.500;2023-04-24T12:33:35;12.00;99.90
15239;DHT22;7722;53.274;9.500;2023-04-24T12:36:02;12.00;99.90
15239;DHT22;7722;53.274;9.500;2023-04-24T12:38:30;12.00;99.90
15239;DHT22;7722;53.274;9.500;2023-04-24T12:41:07;12.00;99.90
15239;DHT22;7722;53.274;9.500;2023-04-24T12:43:34;12.20;99.90
15239;DHT22;7722;53.274;9.500;2023-04-24T12:46:04;12.00;99.90
15239;DHT22;7722;53.274;9.500;2023-04-24T12:48:31;12.00;99.90
15239;DHT22;7722;53.274;9.500;2023-04-24T12:50:59;12.10;99.90
15239;DHT22;7722;53.274;9.500;2023-04-24T12:53:27;12.20;99.90
15239;DHT22;7722;53.274;9.500;2023-04-24T12:55:56;12.40;99.90
15239;DHT22;7722;53.274;9.500;2023-04-24T12:58:23;12.60;99.90
15239;DHT22;7722;53.274;9.500;2023-04-24T13:00:50;12.90;99.90
15239;DHT22;7722;53.274;9.500;2023-04-24T13:03:19;13.00;99.90
15239;DHT22;7722;53.274;9.500;2023-04-24T13:05:48;12.80;99.90
15239;DHT22;7722;53.274;9.500;2023-04-24T13:08:15;12.70;99.90
15239;DHT22;7722;53.274;9.500;2023-04-24T13:10:42;12.50;99.90
15239;DHT22;7722;53.274;9.500;2023-04-24T13:13:09;12.50;99.90
15239;DHT22;7722;53.274;9.500;2023-04-24T13:15:36;12.50;99.90
15239;DHT22;7722;53.274;9.500;2023-04-24T13:18:03;12.50;99.90
15239;DHT22;7722;53.274;9.500;2023-04-24T13:20:31;12.40;99.90
15239;DHT22;7722;53.274;9.500;2023-04-24T13:23:01;12.20;99.90
15239;DHT22;7722;53.274;9.500;2023-04-24T13:25:30;12.00;99.90
15239;DHT22;7722;53.274;9.500;2023-04-24T13:27:57;12.00;99.90
15239;DHT22;7722;53.274;9.500;2023-04-24T13:30:24;11.90;99.90
15239;DHT22;7722;53.274;9.500;2023-04-24T13:32:51;11.90;99.90
15239;DHT22;7722;53.274;9.500;2023-04-24T13:35:18;11.80;99.90
15239;DHT22;7722;53.274;9.500;2023-04-24T13:37:46;11.70;99.90
15239;DHT22;7722;53.274;9.500;2023-04-24T13:40:13;11.60;99.90
15239;DHT22;7722;53.274;9.500;2023-04-24T13:42:40;11.50;99.90
15239;DHT22;7722;53.274;9.500;2023-04-24T13:45:08;11.40;99.90
15239;DHT22;7722;53.274;9.500;2023-04-24T13:47:36;11.20;99.90
15239;DHT22;7722;53.274;9.500;2023-04-24T13:50:07;11.20;99.90
15239;DHT22;7722;53.274;9.500;2023-04-24T13:52:34;11.10;99.90
15239;DHT22;7722;53.274;9.500;2023-04-24T13:55:02;11.10;99.90
15239;DHT22;7722;53.274;9.500;2023-04-24T13:57:29;11.00;99.90
15239;DHT22;7722;53.274;9.500;2023-04-24T13:59:58;10.80;99.90
15239;DHT22;7722;53.274;9.500;2023-04-24T14:02:27;10.60;99.90
15239;DHT22;7722;53.274;9.500;2023-04-24T14:04:54;10.40;99.90
15239;DHT22;7722;53.274;9.500;2023-04-24T14:07:21;10.50;99.90
15239;DHT22;7722;53.274;9.500;2023-04-24T14:09:48;10.50;99.90
15239;DHT22;7722;53.274;9.500;2023-04-24T14:12:17;10.50;99.90
15239;DHT22;7722;53.274;9.500;2023-04-24T14:14:45;10.40;99.90
15239;DHT22;7722;53.274;9.500;2023-04-24T14:17:13;10.40;99.90
15239;DHT22;7722;53.274;9.500;2023-04-24T14:19:40;10.50;99.90
15239;DHT22;7722;53.274;9.500;2023-04-24T14:22:07;10.50;99.90
15239;DHT22;7722;53.274;9.500;2023-04-24T14:24:34;10.40;99.90
15239;DHT22;7722;53.274;9.500;2023-04-24T14:27:01;10.50;99.90
15239;DHT22;7722;53.274;9.500;2023-04-24T14:29:30;10.40;99.90
15239;DHT22;7722;53.274;9.500;2023-04-24T14:31:57;10.30;99.90
15239;DHT22;7722;53.274;9.500;2023-04-24T14:34:24;10.20;99.90
15239;DHT22;7722;53.274;9.500;2023-04-24T14:36:52;10.20;99.90
15239;DHT22;7722;53.274;9.500;2023-04-24T14:39:19;10.10;99.90
15239;DHT22;7722;53.274;9.500;2023-04-24T14:41:46;9.90;99.90
15239;DHT22;7722;53.274;9.500;2023-04-24T14:44:13;9.50;99.90
15239;DHT22;7722;53.274;9.500;2023-04-24T14:46:41;9.40;99.90
15239;DHT22;7722;53.274;9.500;2023-04-24T14:49:08;9.30;99.90
15239;DHT22;7722;53.274;9.500;2023-04-24T14:51:37;9.10;99.90
15239;DHT22;7722;53.274;9.500;2023-04-24T14:54:04;9.00;99.90
15239;DHT22;7722;53.274;9.500;2023-04-24T14:56:32;8.80;99.90
15239;DHT22;7722;53.274;9.500;2023-04-24T14:58:59;8.60;99.90
15239;DHT22;7722;53.274;9.500;2023-04-24T15:01:26;8.50;99.90
15239;DHT22;7722;53.274;9.500;2023-04-24T15:03:54;8.50;99.90
15239;DHT22;7722;53.274;9.500;2023-04-24T15:06:21;8.50;99.90
15239;DHT22;7722;53.274;9.500;2023-04-24T15:08:48;8.40;99.90
15239;DHT22;7722;53.274;9.500;2023-04-24T15:11:15;8.40;99.90
15239;DHT22;7722;53.274;9.500;2023-04-24T15:13:42;8.40;99.90
15239;DHT22;7722;53.274;9.500;2023-04-24T15:16:10;8.30;99.90
15239;DHT22;7722;53.274;9.500;2023-04-24T15:18:37;8.30;99.90
15239;DHT22;7722;53.274;9.500;2023-04-24T15:21:06;8.30;99.90
15239;DHT22;7722;53.274;9.500;2023-04-24T15:23:33;8.40;99.90
15239;DHT22;7722;53.274;9.500;2023-04-24T15:26:00;8.30;99.90
15239;DHT22;7722;53.274;9.500;2023-04-24T15:28:27;8.30;99.90
15239;DHT22;7722;53.274;9.500;2023-04-24T15:30:55;8.20;99.90
15239;DHT22;7722;53.274;9.500;2023-04-24T15:33:22;8.10;99.90
15239;DHT22;7722;53.274;9.500;2023-04-24T15:35:49;8.10;99.90
15239;DHT22;7722;53.274;9.500;2023-04-24T15:38:18;8.10;99.90
15239;DHT22;7722;53.274;9.500;2023-04-24T15:40:45;8.30;99.90
15239;DHT22;7722;53.274;9.500;2023-04-24T15:43:13;8.20;99.90
15239;DHT22;7722;53.274;9.500;2023-04-24T15:45:41;8.20;99.90
15239;DHT22;7722;53.274;9.500;2023-04-24T15:48:09;8.20;99.90
15239;DHT22;7722;53.274;9.500;2023-04-24T15:50:36;8.10;99.90
15239;DHT22;7722;53.274;9.500;2023-04-24T15:53:03;8.10;99.90
15239;DHT22;7722;53.274;9.500;2023-04-24T15:55:31;8.10;99.90